Bradford Regional Airport Bradford US
ICAO: KBFD
IATA: BFD
Category: Medium
Scheduled Services: Yes

Elevation: 2143 ft
TransAlt. 18000 ft.

Airport Communications:
ASOS:133.825
CLEVELAND CNTR:124.325
ALTOONA RDO:122.2
CTAF/UNICOM:123.075

KBFD Zoom In..

If you have problems with the map follow the link
https://www.worldairports.se/pages/airport.php?
ICAO=KBFD

Runways:

(A) RW 05 length 4499 ft width 100 ft
---- / hdg 55

(B) RW 14 length 6306 ft width 150 ft
---- / hdg 145

(C) RW 23 length 4499 ft width 100 ft
---- / hdg 235

(D) RW 32 length 6306 ft width 150 ft
ILS 108.30 / hdg 325

Location; KBFD
Day. 18 / Time. 21.53 Zulu
* Altimeter: 30.04
* Temperature: -03° c. -26.6°f.
* Wind from: 300° Speed 05 kn.
Dewpoint: -06° c.
Visibility: 10 Statute Miles.
Clouds: Few 2000 ft.
Clouds: Overcast 2600 ft.

KBFD 182153Z AUTO 30005KT 10SM FEW020 OVC026 M03/M06 A3004 RMK AO2 SLP196 T10281061


Wind From 300°
Speed 05 kn.

 
 
jpsmedia.com for Web Design worldairports.se 2019   terms of use